Terminal Aerodrome Forecast
Issued by NWS

Home | Current Version | Previous Version | Text Only | Print | Product List | Glossary On
Versions: 1 2 3 4 5 6 7 8 9 10 11 12 13 14 15 16 17 18
000
FTUS46 KHNX 171720
TAFMCE
TAF
KMCE 171720Z 1718/1818 VRB03KT 3SM BR SCT003
      TEMPO 1718/1719 2SM BR BKN003
     FM171900 13006KT 4SM HZ SCT200
     FM180600 13006KT 2SM BR SCT080 BKN200
     FM181200 13007KT 2SM BR BKN080=

USA.gov is the U.S. government's official web portal to all federal, state and local government web resources and services.